createdAt,value
2022-08-22T00:02:37.166Z,99.90
2022-08-22T00:02:46.232Z,99.90
2022-08-22T00:02:57.072Z,99.90
2022-08-22T00:03:00.667Z,99.90
2022-08-22T00:03:08.535Z,99.90
2022-08-22T00:05:23.430Z,99.90
2022-08-22T00:08:08.048Z,99.90
2022-08-22T00:10:54.715Z,99.90
2022-08-22T00:13:28.176Z,99.90
2022-08-22T00:16:08.955Z,99.90
2022-08-22T00:18:43.831Z,99.90
2022-08-22T00:21:19.597Z,99.90
2022-08-22T00:24:23.039Z,99.90
2022-08-22T00:27:04.393Z,99.90
2022-08-22T00:30:16.858Z,99.90
2022-08-22T00:32:54.706Z,99.90
2022-08-22T00:35:41.699Z,99.90
2022-08-22T00:38:28.747Z,99.90
2022-08-22T00:41:13.915Z,99.90
2022-08-22T00:44:09.039Z,99.90
2022-08-22T00:47:00.552Z,99.90
2022-08-22T00:49:54.673Z,99.90
2022-08-22T00:52:35.506Z,99.90
2022-08-22T00:55:20.411Z,99.90
2022-08-22T00:58:10.218Z,99.90
2022-08-22T01:00:45.001Z,99.90
2022-08-22T01:03:32.948Z,99.90
2022-08-22T01:06:14.151Z,99.90
2022-08-22T01:09:12.027Z,99.90
2022-08-22T01:11:44.923Z,99.90
2022-08-22T01:14:14.529Z,99.90
2022-08-22T01:17:02.343Z,99.90
2022-08-22T01:19:50.270Z,99.90
2022-08-22T01:22:54.275Z,99.90
2022-08-22T01:25:33.668Z,99.90
2022-08-22T01:28:28.366Z,99.90
2022-08-22T01:31:20.080Z,99.90
2022-08-22T01:34:05.723Z,99.90
2022-08-22T01:37:01.660Z,99.90
2022-08-22T01:40:02.610Z,99.90
2022-08-22T01:42:43.512Z,99.90
2022-08-22T01:45:19.231Z,99.90
2022-08-22T01:48:27.562Z,99.90
2022-08-22T01:50:59.846Z,99.90
2022-08-22T01:53:42.878Z,99.90
2022-08-22T01:56:11.872Z,99.90
2022-08-22T01:59:04.006Z,99.90
2022-08-22T02:01:54.958Z,99.90
2022-08-22T02:04:40.439Z,99.90
2022-08-22T02:07:14.162Z,99.90
2022-08-22T02:09:53.299Z,99.90
2022-08-22T02:12:29.887Z,99.90
2022-08-22T02:15:24.046Z,99.90
2022-08-22T02:18:06.228Z,99.90
2022-08-22T02:20:48.066Z,99.90
2022-08-22T02:23:43.908Z,99.90
2022-08-22T02:26:20.418Z,99.90
2022-08-22T02:29:01.200Z,99.90
2022-08-22T02:31:47.060Z,99.90
2022-08-22T02:34:53.488Z,99.90
2022-08-22T02:37:32.419Z,99.90
2022-08-22T02:40:11.362Z,99.90
2022-08-22T02:42:56.537Z,99.90
2022-08-22T02:45:46.519Z,99.90
2022-08-22T02:48:44.429Z,99.90
2022-08-22T02:51:59.484Z,99.90
2022-08-22T02:54:37.038Z,99.90
2022-08-22T02:57:14.252Z,99.90
2022-08-22T03:00:31.485Z,99.90
2022-08-22T03:02:59.772Z,99.90
2022-08-22T03:05:49.739Z,99.90
2022-08-22T03:08:31.819Z,99.90
2022-08-22T03:11:32.882Z,99.90
2022-08-22T03:14:08.627Z,99.90
2022-08-22T03:16:56.399Z,99.90
2022-08-22T03:19:32.365Z,99.90
2022-08-22T03:22:30.485Z,99.90
2022-08-22T03:25:12.101Z,99.90
2022-08-22T03:27:53.823Z,99.90
2022-08-22T03:30:38.163Z,99.90
2022-08-22T03:33:18.352Z,99.90
2022-08-22T03:35:45.143Z,99.90
2022-08-22T03:38:14.948Z,99.90
2022-08-22T03:41:12.478Z,99.90
2022-08-22T03:44:14.622Z,99.90
2022-08-22T03:46:59.583Z,99.90
2022-08-22T03:49:59.642Z,99.90
2022-08-22T03:53:04.056Z,99.90
2022-08-22T03:55:34.504Z,99.90
2022-08-22T03:58:33.171Z,99.90
2022-08-22T04:01:32.079Z,99.90
2022-08-22T04:04:20.642Z,99.90
2022-08-22T04:07:03.498Z,99.90
2022-08-22T04:10:07.955Z,99.90
2022-08-22T04:12:59.027Z,99.90
2022-08-22T04:16:01.324Z,99.90
2022-08-22T04:18:33.322Z,99.90
2022-08-22T04:21:15.394Z,99.90
2022-08-22T04:24:17.071Z,99.90
2022-08-22T04:26:58.423Z,99.90
2022-08-22T04:29:44.159Z,99.90
2022-08-22T04:32:52.200Z,99.90
2022-08-22T04:35:27.471Z,99.90
2022-08-22T04:38:36.379Z,99.90
2022-08-22T04:41:18.292Z,99.90
2022-08-22T04:43:48.616Z,99.90
2022-08-22T04:46:38.867Z,99.90
2022-08-22T04:49:19.531Z,99.90
2022-08-22T04:52:10.884Z,99.90
2022-08-22T04:55:07.995Z,99.90
2022-08-22T04:58:06.846Z,99.90
2022-08-22T05:00:44.734Z,99.90
2022-08-22T05:03:16.742Z,99.90
2022-08-22T05:05:47.104Z,99.90
2022-08-22T05:08:21.558Z,99.90
2022-08-22T05:10:50.687Z,99.90
2022-08-22T05:13:36.112Z,99.90
2022-08-22T05:16:09.594Z,99.90
2022-08-22T05:18:44.331Z,99.90
2022-08-22T05:21:13.914Z,99.90
2022-08-22T05:23:48.423Z,99.90
2022-08-22T05:26:17.411Z,99.90
2022-08-22T05:28:52.894Z,99.90
2022-08-22T05:31:34.648Z,99.90
2022-08-22T05:34:23.991Z,99.90
2022-08-22T05:37:01.517Z,99.90
2022-08-22T05:39:29.966Z,99.90
2022-08-22T05:42:00.770Z,99.90
2022-08-22T05:44:32.641Z,99.90
2022-08-22T05:47:14.257Z,99.90
2022-08-22T05:49:55.015Z,99.90
2022-08-22T05:52:38.030Z,99.90
2022-08-22T05:55:55.511Z,99.90
2022-08-22T05:58:43.037Z,99.90
2022-08-22T06:01:35.982Z,99.90
2022-08-22T06:04:26.016Z,99.90
2022-08-22T06:06:59.018Z,99.90
2022-08-22T06:09:43.950Z,99.90
2022-08-22T06:12:36.528Z,99.90
2022-08-22T06:15:21.039Z,99.90
2022-08-22T06:17:52.818Z,99.90
2022-08-22T06:20:28.778Z,99.90
2022-08-22T06:22:59.955Z,99.90
2022-08-22T06:25:31.269Z,99.90
2022-08-22T06:28:03.168Z,99.90
2022-08-22T06:30:31.662Z,99.90
2022-08-22T06:33:08.374Z,99.90
2022-08-22T06:36:05.267Z,99.90
2022-08-22T06:38:51.664Z,99.90
2022-08-22T06:41:22.196Z,99.90
2022-08-22T06:43:52.737Z,99.90
2022-08-22T06:46:22.871Z,99.90
2022-08-22T06:48:50.277Z,99.90
2022-08-22T06:51:19.724Z,99.90
2022-08-22T06:53:53.742Z,99.90
2022-08-22T06:56:33.562Z,99.90
2022-08-22T06:59:06.293Z,99.90
2022-08-22T07:01:43.496Z,99.90
2022-08-22T07:04:10.954Z,99.90
2022-08-22T07:06:42.663Z,99.90
2022-08-22T07:09:34.906Z,99.90
2022-08-22T07:12:10.979Z,99.90
2022-08-22T07:14:43.874Z,99.90
2022-08-22T07:17:29.016Z,99.90
2022-08-22T07:20:18.143Z,99.90
2022-08-22T07:22:55.269Z,99.90
2022-08-22T07:25:24.375Z,99.90
2022-08-22T07:28:09.069Z,99.90
2022-08-22T07:31:11.754Z,99.90
2022-08-22T07:33:42.252Z,99.90
2022-08-22T07:36:32.166Z,99.90
2022-08-22T07:39:20.408Z,99.90
2022-08-22T07:42:14.556Z,99.90
2022-08-22T07:44:50.538Z,99.90
2022-08-22T07:47:26.190Z,99.90
2022-08-22T07:50:04.432Z,99.90
2022-08-22T07:52:44.028Z,99.90
2022-08-22T07:55:13.669Z,99.90
2022-08-22T07:57:46.453Z,99.90
2022-08-22T08:00:19.720Z,99.90
2022-08-22T08:02:56.358Z,99.90
2022-08-22T08:05:27.527Z,99.90
2022-08-22T08:07:56.206Z,99.90
2022-08-22T08:10:31.422Z,99.90
2022-08-22T08:13:06.464Z,99.90
2022-08-22T08:15:35.825Z,99.90
2022-08-22T08:18:12.509Z,99.90
2022-08-22T08:20:39.678Z,99.90
2022-08-22T08:23:10.348Z,99.90
2022-08-22T08:26:15.947Z,99.90
2022-08-22T08:28:48.937Z,99.90
2022-08-22T08:31:26.805Z,99.90
2022-08-22T08:34:07.976Z,99.90
2022-08-22T08:36:53.138Z,99.90
2022-08-22T08:39:35.824Z,99.90
2022-08-22T08:42:05.870Z,99.90
2022-08-22T08:44:48.605Z,99.90
2022-08-22T08:47:21.244Z,99.90
2022-08-22T08:50:19.554Z,99.90
2022-08-22T08:53:17.045Z,99.90
2022-08-22T08:56:03.936Z,99.90
2022-08-22T08:58:41.145Z,99.90
2022-08-22T09:01:20.047Z,99.90
2022-08-22T09:04:15.388Z,99.90
2022-08-22T09:06:59.358Z,99.90
2022-08-22T09:09:52.344Z,99.90
2022-08-22T09:13:12.504Z,99.90
2022-08-22T09:16:11.529Z,99.90
2022-08-22T09:19:06.553Z,99.90
2022-08-22T09:21:51.745Z,99.90
2022-08-22T09:24:33.759Z,99.90
2022-08-22T09:27:08.586Z,99.90
2022-08-22T09:29:51.453Z,99.90
2022-08-22T09:32:34.399Z,99.90
2022-08-22T09:35:20.084Z,99.90
2022-08-22T09:37:58.953Z,99.90
2022-08-22T09:40:43.295Z,99.90
2022-08-22T09:43:21.236Z,99.90
2022-08-22T09:45:51.360Z,99.90
2022-08-22T09:48:21.315Z,99.90
2022-08-22T09:51:31.908Z,99.90
2022-08-22T09:54:10.520Z,99.90
2022-08-22T09:57:01.334Z,99.90
2022-08-22T09:59:34.235Z,99.90
2022-08-22T10:02:15.526Z,99.90
2022-08-22T10:05:40.571Z,99.90
2022-08-22T10:08:11.323Z,99.90
2022-08-22T10:10:58.746Z,99.90
2022-08-22T10:13:52.881Z,99.90
2022-08-22T10:16:34.640Z,99.90
2022-08-22T10:19:17.915Z,99.90
2022-08-22T10:22:22.478Z,99.90
2022-08-22T10:24:58.657Z,99.90
2022-08-22T10:27:39.691Z,99.90
2022-08-22T10:30:09.711Z,99.90
2022-08-22T10:32:46.031Z,99.90
2022-08-22T10:35:16.949Z,99.90
2022-08-22T10:38:25.233Z,99.90
2022-08-22T10:41:05.462Z,99.90
2022-08-22T10:44:05.215Z,99.90
2022-08-22T10:46:45.367Z,99.90
2022-08-22T10:49:20.711Z,99.90
2022-08-22T10:52:09.719Z,99.90
2022-08-22T10:54:53.400Z,99.90
2022-08-22T10:57:56.188Z,99.90
2022-08-22T11:00:50.537Z,99.90
2022-08-22T11:03:39.118Z,99.90
2022-08-22T11:06:14.395Z,99.90
2022-08-22T11:08:56.285Z,99.70
2022-08-22T11:11:47.543Z,98.80
2022-08-22T11:14:38.671Z,98.50
2022-08-22T11:17:20.469Z,98.10
2022-08-22T11:20:07.176Z,94.20
2022-08-22T11:23:13.071Z,94.30
2022-08-22T11:25:45.872Z,93.70
2022-08-22T11:28:29.961Z,92.60
2022-08-22T11:31:19.797Z,92.00
2022-08-22T11:34:10.585Z,92.40
2022-08-22T11:36:53.263Z,91.40
2022-08-22T11:39:42.825Z,91.60
2022-08-22T11:42:22.203Z,91.60
2022-08-22T11:45:04.666Z,91.70
2022-08-22T11:47:44.507Z,91.30
2022-08-22T11:50:33.688Z,91.00
2022-08-22T11:53:16.894Z,90.10
2022-08-22T11:56:10.525Z,91.00
2022-08-22T11:59:01.210Z,88.80
2022-08-22T12:01:49.938Z,89.30
2022-08-22T12:04:42.668Z,85.80
2022-08-22T12:07:34.784Z,87.20
2022-08-22T12:10:13.831Z,87.60
2022-08-22T12:13:34.976Z,86.70
2022-08-22T12:16:27.120Z,86.90
2022-08-22T12:19:01.859Z,86.50
2022-08-22T12:22:00.632Z,88.90
2022-08-22T12:25:02.721Z,87.00
2022-08-22T12:28:11.610Z,83.70
2022-08-22T12:30:54.739Z,85.20
2022-08-22T12:33:36.153Z,85.30
2022-08-22T12:36:23.503Z,83.50
2022-08-22T12:39:07.940Z,80.90
2022-08-22T12:41:57.387Z,84.00
2022-08-22T12:44:57.725Z,80.30
2022-08-22T12:47:43.789Z,79.90
2022-08-22T12:50:42.620Z,82.30
2022-08-22T12:53:37.857Z,81.30
2022-08-22T12:56:26.834Z,77.50
2022-08-22T12:59:28.156Z,79.20
2022-08-22T13:01:59.443Z,78.20
2022-08-22T13:04:34.329Z,74.20
2022-08-22T13:07:10.102Z,75.40
2022-08-22T13:09:48.729Z,76.30
2022-08-22T13:12:25.681Z,74.40
2022-08-22T13:15:02.809Z,73.60
2022-08-22T13:17:30.235Z,74.90
2022-08-22T13:20:11.367Z,75.80
2022-08-22T13:22:45.042Z,75.30
2022-08-22T13:25:57.646Z,78.80
2022-08-22T13:28:27.272Z,78.40
2022-08-22T13:30:55.315Z,79.10
2022-08-22T13:33:28.539Z,77.00
2022-08-22T13:36:01.838Z,77.10
2022-08-22T13:38:46.409Z,74.30
2022-08-22T13:41:19.795Z,73.60
2022-08-22T13:44:09.277Z,72.40
2022-08-22T13:46:52.785Z,76.30
2022-08-22T13:49:44.422Z,72.50
2022-08-22T13:52:49.288Z,73.90
2022-08-22T13:55:43.214Z,71.90
2022-08-22T13:58:25.915Z,71.00
2022-08-22T14:01:16.315Z,71.10
2022-08-22T14:03:50.094Z,71.60
2022-08-22T14:07:01.403Z,74.10
2022-08-22T14:09:54.556Z,74.60
2022-08-22T14:13:09.663Z,75.20
2022-08-22T14:15:46.033Z,74.00
2022-08-22T14:18:31.715Z,73.60
2022-08-22T14:21:39.921Z,71.90
2022-08-22T14:24:25.665Z,71.40
2022-08-22T14:27:07.999Z,70.70
2022-08-22T14:29:50.324Z,72.60
2022-08-22T14:32:25.892Z,70.30
2022-08-22T14:35:23.162Z,70.80
2022-08-22T14:37:55.122Z,66.90
2022-08-22T14:40:32.800Z,68.70
2022-08-22T14:43:06.257Z,68.30
2022-08-22T14:45:42.985Z,67.00
2022-08-22T14:48:31.190Z,66.50
2022-08-22T14:51:08.402Z,68.40
2022-08-22T14:53:38.604Z,70.20
2022-08-22T14:56:13.376Z,68.70
2022-08-22T14:59:08.975Z,69.70
2022-08-22T15:01:54.373Z,69.20
2022-08-22T15:04:39.127Z,70.90
2022-08-22T15:07:08.113Z,70.80
2022-08-22T15:09:50.550Z,70.10
2022-08-22T15:12:40.207Z,69.70
2022-08-22T15:15:26.563Z,72.70
2022-08-22T15:17:53.588Z,69.50
2022-08-22T15:20:36.177Z,66.70
2022-08-22T15:23:09.722Z,67.20
2022-08-22T15:25:41.296Z,69.30
2022-08-22T15:28:20.069Z,70.80
2022-08-22T15:31:03.975Z,70.40
2022-08-22T15:33:32.442Z,69.90
2022-08-22T15:36:16.357Z,70.00
2022-08-22T15:38:49.324Z,70.40
2022-08-22T15:41:22.560Z,68.20
2022-08-22T15:43:53.480Z,70.40
2022-08-22T15:46:23.056Z,70.50
2022-08-22T15:49:01.609Z,72.20
2022-08-22T15:51:37.610Z,72.80
2022-08-22T15:54:13.102Z,72.60
2022-08-22T15:56:55.914Z,75.10
2022-08-22T16:00:01.553Z,74.80
2022-08-22T16:02:42.035Z,75.60
2022-08-22T16:05:11.971Z,76.70
2022-08-22T16:08:00.443Z,78.50
2022-08-22T16:10:40.229Z,77.30
2022-08-22T16:13:33.587Z,78.10
2022-08-22T16:16:09.167Z,78.30
2022-08-22T16:18:43.776Z,77.70
2022-08-22T16:21:17.598Z,78.50
2022-08-22T16:23:50.984Z,78.00
2022-08-22T16:26:30.111Z,80.30
2022-08-22T16:29:13.676Z,78.50
2022-08-22T16:31:44.749Z,78.50
2022-08-22T16:34:20.548Z,81.20
2022-08-22T16:37:08.963Z,82.20
2022-08-22T16:39:39.788Z,82.10
2022-08-22T16:42:13.002Z,82.70
2022-08-22T16:44:42.551Z,82.70
2022-08-22T16:47:32.603Z,83.60
2022-08-22T16:50:14.797Z,84.60
2022-08-22T16:52:54.876Z,85.40
2022-08-22T16:55:30.971Z,86.30
2022-08-22T16:58:06.991Z,86.10
2022-08-22T17:00:37.006Z,84.90
2022-08-22T17:03:03.826Z,84.00
2022-08-22T17:06:12.775Z,85.40
2022-08-22T17:09:22.262Z,85.60
2022-08-22T17:12:08.263Z,85.70
2022-08-22T17:14:59.424Z,85.40
2022-08-22T17:17:58.582Z,84.30
2022-08-22T17:20:37.105Z,84.90
2022-08-22T17:23:29.714Z,87.60
2022-08-22T17:26:02.434Z,86.10
2022-08-22T17:28:34.298Z,86.20
2022-08-22T17:31:13.002Z,91.80
2022-08-22T17:34:02.193Z,91.10
2022-08-22T17:36:47.783Z,92.80
2022-08-22T17:39:55.666Z,92.20
2022-08-22T17:42:57.953Z,94.60
2022-08-22T17:45:59.472Z,93.40
2022-08-22T17:48:39.374Z,93.90
2022-08-22T17:51:28.895Z,96.10
2022-08-22T17:54:30.904Z,96.20
2022-08-22T17:57:10.275Z,95.40
2022-08-22T17:59:52.644Z,95.70
2022-08-22T18:02:23.303Z,95.30
2022-08-22T18:05:12.936Z,96.00
2022-08-22T18:08:07.021Z,97.20
2022-08-22T18:10:47.672Z,98.70
2022-08-22T18:13:42.170Z,99.90
2022-08-22T18:16:27.161Z,99.90
2022-08-22T18:19:12.579Z,99.90
2022-08-22T18:21:42.962Z,99.90
2022-08-22T18:24:09.848Z,99.90
2022-08-22T18:26:42.604Z,99.90
2022-08-22T18:29:24.687Z,99.90
2022-08-22T18:32:10.998Z,99.90
2022-08-22T18:34:47.336Z,99.90
2022-08-22T18:37:24.417Z,99.90
2022-08-22T18:40:01.995Z,99.90
2022-08-22T18:42:47.856Z,99.90
2022-08-22T18:45:44.206Z,99.90
2022-08-22T18:48:49.518Z,99.90
2022-08-22T18:51:25.032Z,99.90
2022-08-22T18:54:00.598Z,99.90
2022-08-22T18:56:48.414Z,99.90
2022-08-22T18:59:37.126Z,99.90
2022-08-22T19:02:20.647Z,99.90
2022-08-22T19:05:02.946Z,99.90
2022-08-22T19:08:07.354Z,99.90
2022-08-22T19:11:04.040Z,99.90
2022-08-22T19:14:16.089Z,99.90
2022-08-22T19:16:42.992Z,99.90
2022-08-22T19:19:17.223Z,99.90
2022-08-22T19:22:23.243Z,99.90
2022-08-22T19:25:11.571Z,99.90
2022-08-22T19:27:44.911Z,99.90
2022-08-22T19:30:41.130Z,99.90
2022-08-22T19:33:37.831Z,99.90
2022-08-22T19:36:29.443Z,99.90
2022-08-22T19:39:08.849Z,99.90
2022-08-22T19:41:57.091Z,99.90
2022-08-22T19:44:24.348Z,99.90
2022-08-22T19:47:00.846Z,99.90
2022-08-22T19:49:35.893Z,99.90
2022-08-22T19:52:32.607Z,99.90
2022-08-22T19:55:18.154Z,99.90
2022-08-22T19:57:52.517Z,99.90
2022-08-22T20:00:23.922Z,99.90
2022-08-22T20:03:04.607Z,99.90
2022-08-22T20:05:56.734Z,99.90
2022-08-22T20:08:53.557Z,99.90
2022-08-22T20:11:51.576Z,99.90
2022-08-22T20:14:30.483Z,99.90
2022-08-22T20:17:03.728Z,99.90
2022-08-22T20:22:39.183Z,99.90
2022-08-22T20:25:42.627Z,99.90
2022-08-22T20:28:29.605Z,99.90
2022-08-22T20:31:02.707Z,99.90
2022-08-22T20:33:38.872Z,99.90
2022-08-22T20:36:18.521Z,99.90
2022-08-22T20:39:01.809Z,99.90
2022-08-22T20:41:46.564Z,99.90
2022-08-22T20:44:28.647Z,99.90
2022-08-22T20:47:00.800Z,99.90
2022-08-22T20:49:37.748Z,99.90
2022-08-22T20:52:27.956Z,99.90
2022-08-22T20:55:06.990Z,99.90
2022-08-22T20:57:43.739Z,99.90
2022-08-22T21:00:21.926Z,99.90
2022-08-22T21:03:12.669Z,99.90
2022-08-22T21:05:42.818Z,99.90
2022-08-22T21:08:26.911Z,99.90
2022-08-22T21:11:22.118Z,99.90
2022-08-22T21:13:49.541Z,99.90
2022-08-22T21:16:31.481Z,99.90
2022-08-22T21:19:01.607Z,99.90
2022-08-22T21:21:34.388Z,99.90
2022-08-22T21:24:05.823Z,99.90
2022-08-22T21:26:40.587Z,99.90
2022-08-22T21:29:12.115Z,99.90
2022-08-22T21:31:44.827Z,99.90
2022-08-22T21:34:20.771Z,99.90
2022-08-22T21:36:54.831Z,99.90
2022-08-22T21:39:31.155Z,99.90
2022-08-22T21:42:01.726Z,99.90
2022-08-22T21:44:38.332Z,99.90
2022-08-22T21:47:28.556Z,99.90
2022-08-22T21:50:02.664Z,99.90
2022-08-22T21:52:35.182Z,99.90
2022-08-22T21:55:32.790Z,99.90
2022-08-22T21:58:36.114Z,99.90
2022-08-22T22:01:28.768Z,99.90
2022-08-22T22:03:56.565Z,99.90
2022-08-22T22:06:23.409Z,99.90
2022-08-22T22:08:50.413Z,99.90
2022-08-22T22:11:17.656Z,99.90
2022-08-22T22:13:45.427Z,99.90
2022-08-22T22:16:13.116Z,99.90
2022-08-22T22:18:40.673Z,99.90
2022-08-22T22:21:08.384Z,99.90
2022-08-22T22:23:35.297Z,99.90
2022-08-22T22:26:04.740Z,99.90
2022-08-22T22:28:38.780Z,99.90
2022-08-22T22:31:06.481Z,99.90
2022-08-22T22:33:36.868Z,99.90
2022-08-22T22:36:07.975Z,99.90
2022-08-22T22:38:35.053Z,99.90
2022-08-22T22:41:01.934Z,99.90
2022-08-22T22:43:28.819Z,99.90
2022-08-22T22:45:55.776Z,99.90
2022-08-22T22:48:24.821Z,99.90
2022-08-22T22:50:53.109Z,99.90
2022-08-22T22:53:21.513Z,99.90
2022-08-22T22:56:05.359Z,99.90
2022-08-22T22:58:33.577Z,99.90
2022-08-22T23:01:15.312Z,99.90
2022-08-22T23:03:43.005Z,99.90
2022-08-22T23:06:15.556Z,99.90
2022-08-22T23:08:42.628Z,99.90
2022-08-22T23:11:19.141Z,99.90
2022-08-22T23:13:48.031Z,99.90
2022-08-22T23:16:19.238Z,99.90
2022-08-22T23:18:46.824Z,99.90
2022-08-22T23:21:21.130Z,99.90
2022-08-22T23:23:49.198Z,99.90
2022-08-22T23:26:16.727Z,99.90
2022-08-22T23:28:43.806Z,99.90
2022-08-22T23:31:13.478Z,99.90
2022-08-22T23:33:40.713Z,99.90
2022-08-22T23:36:20.031Z,99.90
2022-08-22T23:38:48.097Z,99.90
2022-08-22T23:41:17.708Z,99.90
2022-08-22T23:43:50.422Z,99.90
2022-08-22T23:46:19.036Z,99.90
2022-08-22T23:48:46.607Z,99.90
2022-08-22T23:51:15.378Z,99.90
2022-08-22T23:53:45.143Z,99.90
2022-08-22T23:56:23.190Z,99.90
2022-08-22T23:58:50.457Z,99.90
